createdAt,value
2023-03-16T00:00:18.477Z,99919.88
2023-03-16T00:02:45.607Z,99920.97
2023-03-16T00:05:14.222Z,99924.00
2023-03-16T00:07:44.538Z,99916.72
2023-03-16T00:10:13.489Z,99918.69
2023-03-16T00:12:43.561Z,99909.72
2023-03-16T00:15:12.482Z,99912.69
2023-03-16T00:17:39.524Z,99917.19
2023-03-16T00:20:07.196Z,99916.88
2023-03-16T00:22:34.468Z,99925.41
2023-03-16T00:25:01.894Z,99921.59
2023-03-16T00:27:29.604Z,99917.25
2023-03-16T00:29:56.919Z,99925.19
2023-03-16T00:32:28.777Z,99923.06
2023-03-16T00:34:56.642Z,99924.78
2023-03-16T00:37:25.843Z,99930.22
2023-03-16T00:39:56.365Z,99922.75
2023-03-16T00:42:29.972Z,99925.50
2023-03-16T00:44:59.974Z,99926.66
2023-03-16T00:47:33.644Z,99925.41
2023-03-16T00:50:02.271Z,99923.34
2023-03-16T00:52:30.486Z,99923.03
2023-03-16T00:54:58.481Z,99920.28
2023-03-16T00:57:27.850Z,99920.88
2023-03-16T00:59:55.890Z,99924.72
2023-03-16T01:02:25.788Z,99928.69
2023-03-16T01:04:54.624Z,99916.63
2023-03-16T01:07:22.173Z,99912.91
2023-03-16T01:09:49.261Z,99903.69
2023-03-16T01:12:19.331Z,99904.81
2023-03-16T01:14:47.943Z,99907.28
2023-03-16T01:17:17.654Z,99900.59
2023-03-16T01:19:46.130Z,99901.22
2023-03-16T01:22:13.605Z,99883.97
2023-03-16T01:24:42.646Z,99879.94
2023-03-16T01:27:09.727Z,99878.78
2023-03-16T01:29:37.944Z,99874.31
2023-03-16T01:32:06.986Z,99870.69
2023-03-16T01:34:34.665Z,99879.03
2023-03-16T01:37:02.104Z,99870.56
2023-03-16T01:39:50.135Z,99868.81
2023-03-16T01:42:17.334Z,99875.75
2023-03-16T01:45:47.867Z,99888.06
2023-03-16T01:48:15.510Z,99879.97
2023-03-16T01:50:42.822Z,99881.78
2023-03-16T01:53:10.518Z,99888.19
2023-03-16T01:55:37.868Z,99887.34
2023-03-16T01:58:05.725Z,99897.47
2023-03-16T02:00:33.719Z,99889.66
2023-03-16T02:03:18.397Z,99901.47
2023-03-16T02:06:04.657Z,99885.34
2023-03-16T02:08:34.963Z,99887.16
2023-03-16T02:11:04.705Z,99880.69
2023-03-16T02:13:43.578Z,99874.19
2023-03-16T02:16:13.388Z,99867.22
2023-03-16T02:18:40.322Z,99858.41
2023-03-16T02:21:33.177Z,99857.88
2023-03-16T02:24:03.235Z,99855.53
2023-03-16T02:26:58.177Z,99848.13
2023-03-16T02:29:55.011Z,99830.94
2023-03-16T02:32:24.524Z,99837.72
2023-03-16T02:34:51.912Z,99831.72
2023-03-16T02:37:19.090Z,99821.69
2023-03-16T02:39:46.087Z,99825.72
2023-03-16T02:42:21.883Z,99820.88
2023-03-16T02:44:58.143Z,99826.28
2023-03-16T02:47:53.418Z,99822.53
2023-03-16T02:50:20.960Z,99818.22
2023-03-16T02:52:48.572Z,99816.50
2023-03-16T02:55:15.933Z,99817.34
2023-03-16T02:57:45.740Z,99813.06
2023-03-16T03:00:17.883Z,99810.13
2023-03-16T03:02:47.610Z,99814.66
2023-03-16T03:05:14.670Z,99803.19
2023-03-16T03:07:42.080Z,99805.72
2023-03-16T03:10:09.844Z,99807.38
2023-03-16T03:12:37.752Z,99796.09
2023-03-16T03:15:08.668Z,99784.59
2023-03-16T03:17:47.365Z,99783.06
2023-03-16T03:20:18.404Z,99799.78
2023-03-16T03:22:49.809Z,99803.44
2023-03-16T03:25:18.325Z,99801.47
2023-03-16T03:27:47.939Z,99813.88
2023-03-16T03:30:21.438Z,99815.88
2023-03-16T03:32:49.030Z,99814.59
2023-03-16T03:35:18.556Z,99819.16
2023-03-16T03:37:45.852Z,99812.84
2023-03-16T03:40:16.575Z,99811.91
2023-03-16T03:42:46.582Z,99807.78
2023-03-16T03:45:15.049Z,99802.19
2023-03-16T03:47:43.788Z,99792.06
2023-03-16T03:50:15.161Z,99800.28
2023-03-16T03:52:52.391Z,99803.81
2023-03-16T03:55:19.488Z,99803.69
2023-03-16T03:57:46.364Z,99801.28
2023-03-16T04:00:14.669Z,99806.84
2023-03-16T04:02:43.237Z,99805.94
2023-03-16T04:05:19.330Z,99809.38
2023-03-16T04:07:48.239Z,99805.63
2023-03-16T04:10:15.265Z,99810.03
2023-03-16T04:12:43.577Z,99804.84
2023-03-16T04:15:13.285Z,99810.09
2023-03-16T04:17:52.656Z,99802.31
2023-03-16T04:20:20.036Z,99798.41
2023-03-16T04:22:47.716Z,99794.19
2023-03-16T04:25:18.172Z,99783.34
2023-03-16T04:27:46.698Z,99786.13
2023-03-16T04:30:15.575Z,99785.84
2023-03-16T04:32:47.410Z,99775.63
2023-03-16T04:35:19.157Z,99773.19
2023-03-16T04:37:52.644Z,99772.88
2023-03-16T04:40:24.472Z,99772.09
2023-03-16T04:42:59.881Z,99767.31
2023-03-16T04:45:27.031Z,99767.06
2023-03-16T04:47:56.654Z,99771.97
2023-03-16T04:50:23.892Z,99774.41
2023-03-16T04:52:53.504Z,99774.72
2023-03-16T04:55:22.844Z,99778.16
2023-03-16T04:57:50.529Z,99787.00
2023-03-16T05:00:22.233Z,99786.84
2023-03-16T05:03:11.986Z,99789.22
2023-03-16T05:05:39.512Z,99790.75
2023-03-16T05:08:07.515Z,99797.25
2023-03-16T05:10:36.647Z,99793.78
2023-03-16T05:13:03.693Z,99787.19
2023-03-16T05:15:30.875Z,99786.47
2023-03-16T05:18:08.735Z,99789.59
2023-03-16T05:20:35.904Z,99780.47
2023-03-16T05:23:04.229Z,99785.53
2023-03-16T05:25:34.986Z,99790.44
2023-03-16T05:28:05.485Z,99778.88
2023-03-16T05:30:51.720Z,99787.63
2023-03-16T05:33:23.477Z,99780.28
2023-03-16T05:35:58.107Z,99781.22
2023-03-16T05:38:27.512Z,99777.28
2023-03-16T05:40:55.433Z,99782.56
2023-03-16T05:43:35.016Z,99781.63
2023-03-16T05:46:02.627Z,99765.34
2023-03-16T05:48:30.143Z,99774.59
2023-03-16T05:50:59.346Z,99775.81
2023-03-16T05:53:29.376Z,99778.00
2023-03-16T05:56:03.420Z,99775.50
2023-03-16T05:58:33.917Z,99777.25
2023-03-16T06:01:01.866Z,99771.06
2023-03-16T06:03:31.491Z,99757.94
2023-03-16T06:05:59.774Z,99760.69
2023-03-16T06:08:31.184Z,99759.34
2023-03-16T06:11:07.053Z,99756.28
2023-03-16T06:13:34.977Z,99747.94
2023-03-16T06:16:02.905Z,99748.13
2023-03-16T06:18:30.256Z,99737.47
2023-03-16T06:20:57.155Z,99742.00
2023-03-16T06:23:24.553Z,99748.66
2023-03-16T06:25:55.144Z,99750.78
2023-03-16T06:28:25.205Z,99732.72
2023-03-16T06:30:59.079Z,99732.72
2023-03-16T06:33:30.119Z,99750.81
2023-03-16T06:35:57.315Z,99742.94
2023-03-16T06:38:31.698Z,99742.19
2023-03-16T06:41:02.134Z,99737.47
2023-03-16T06:43:30.170Z,99737.31
2023-03-16T06:45:58.826Z,99745.97
2023-03-16T06:48:25.818Z,99738.94
2023-03-16T06:50:53.037Z,99741.41
2023-03-16T06:53:24.184Z,99734.59
2023-03-16T06:55:52.472Z,99734.78
2023-03-16T06:58:19.957Z,99738.63
2023-03-16T07:00:47.032Z,99741.53
2023-03-16T07:03:13.987Z,99744.75
2023-03-16T07:05:47.107Z,99746.94
2023-03-16T07:08:15.198Z,99746.75
2023-03-16T07:10:42.370Z,99744.31
2023-03-16T07:13:09.358Z,99745.25
2023-03-16T07:15:36.430Z,99754.28
2023-03-16T07:18:05.605Z,99752.03
2023-03-16T07:20:33.230Z,99755.31
2023-03-16T07:23:04.784Z,99760.59
2023-03-16T07:25:32.074Z,99765.16
2023-03-16T07:27:59.927Z,99770.63
2023-03-16T07:30:32.952Z,99773.13
2023-03-16T07:33:01.717Z,99771.63
2023-03-16T07:35:29.976Z,99774.84
2023-03-16T07:37:57.225Z,99769.28
2023-03-16T07:40:25.129Z,99779.78
2023-03-16T07:42:55.898Z,99780.91
2023-03-16T07:45:29.069Z,99778.47
2023-03-16T07:47:56.423Z,99778.69
2023-03-16T07:50:41.530Z,99782.25
2023-03-16T07:53:08.845Z,99781.84
2023-03-16T07:55:39.060Z,99775.44
2023-03-16T07:58:08.893Z,99773.81
2023-03-16T08:00:39.019Z,99777.28
2023-03-16T08:03:06.856Z,99771.63
2023-03-16T08:05:34.038Z,99778.72
2023-03-16T08:08:05.320Z,99780.59
2023-03-16T08:10:33.820Z,99772.47
2023-03-16T08:13:10.017Z,99770.94
2023-03-16T08:15:42.324Z,99776.78
2023-03-16T08:18:16.250Z,99773.78
2023-03-16T08:20:44.624Z,99770.34
2023-03-16T08:23:13.251Z,99771.28
2023-03-16T08:25:42.094Z,99777.78
2023-03-16T08:28:12.993Z,99774.25
2023-03-16T08:30:48.618Z,99778.31
2023-03-16T08:33:38.676Z,99785.06
2023-03-16T08:36:09.406Z,99780.25
2023-03-16T08:38:36.523Z,99779.34
2023-03-16T08:41:08.780Z,99780.06
2023-03-16T08:43:37.525Z,99778.56
2023-03-16T08:46:06.718Z,99775.09
2023-03-16T08:48:55.918Z,99769.22
2023-03-16T08:51:24.987Z,99766.88
2023-03-16T08:53:52.811Z,99766.97
2023-03-16T08:56:19.883Z,99759.25
2023-03-16T08:58:47.250Z,99754.34
2023-03-16T09:01:17.580Z,99747.63
2023-03-16T09:03:46.475Z,99748.13
2023-03-16T09:06:17.053Z,99743.63
2023-03-16T09:08:47.912Z,99752.06
2023-03-16T09:11:18.774Z,99766.41
2023-03-16T09:13:46.316Z,99751.19
2023-03-16T09:16:15.729Z,99748.66
2023-03-16T09:18:43.840Z,99754.81
2023-03-16T09:21:13.836Z,99742.94
2023-03-16T09:23:42.854Z,99749.09
2023-03-16T09:26:12.430Z,99759.25
2023-03-16T09:28:42.048Z,99748.34
2023-03-16T09:31:17.987Z,99750.25
2023-03-16T09:33:44.947Z,99752.38
2023-03-16T09:36:13.559Z,99751.28
2023-03-16T09:38:42.354Z,99757.53
2023-03-16T09:41:34.826Z,99754.94
2023-03-16T09:44:34.469Z,99746.47
2023-03-16T09:47:04.856Z,99752.25
2023-03-16T09:49:47.663Z,99749.50
2023-03-16T09:52:39.424Z,99750.56
2023-03-16T09:55:31.290Z,99749.78
2023-03-16T09:58:00.958Z,99756.63
2023-03-16T10:00:34.714Z,99762.13
2023-03-16T10:03:17.694Z,99752.97
2023-03-16T10:05:47.970Z,99750.19
2023-03-16T10:08:39.187Z,99739.78
2023-03-16T10:11:28.362Z,99733.56
2023-03-16T10:14:02.962Z,99740.50
2023-03-16T10:16:45.479Z,99741.03
2023-03-16T10:19:29.458Z,99734.16
2023-03-16T10:22:00.285Z,99738.34
2023-03-16T10:24:52.670Z,99723.44
2023-03-16T10:27:31.269Z,99732.72
2023-03-16T10:30:01.206Z,99722.38
2023-03-16T10:32:34.613Z,99726.59
2023-03-16T10:35:18.590Z,99715.59
2023-03-16T10:37:46.634Z,99717.00
2023-03-16T10:40:13.796Z,99721.00
2023-03-16T10:42:41.587Z,99728.66
2023-03-16T10:45:29.954Z,99727.00
2023-03-16T10:48:20.386Z,99724.25
2023-03-16T10:50:57.748Z,99728.59
2023-03-16T10:53:31.551Z,99732.13
2023-03-16T10:56:13.162Z,99735.75
2023-03-16T10:58:43.119Z,99732.84
2023-03-16T11:01:28.977Z,99732.28
2023-03-16T11:03:58.233Z,99717.97
2023-03-16T11:06:30.578Z,99719.81
2023-03-16T11:09:34.875Z,99716.41
2023-03-16T11:12:22.087Z,99706.44
2023-03-16T11:14:49.128Z,99704.72
2023-03-16T11:17:33.074Z,99709.88
2023-03-16T11:20:16.664Z,99703.06
2023-03-16T11:22:46.516Z,99695.38
2023-03-16T11:25:31.756Z,99700.63
2023-03-16T11:28:15.675Z,99696.28
2023-03-16T11:31:13.886Z,99696.44
2023-03-16T11:33:41.349Z,99691.44
2023-03-16T11:36:25.336Z,99693.09
2023-03-16T11:39:14.263Z,99682.88
2023-03-16T11:42:04.013Z,99677.91
2023-03-16T11:45:10.977Z,99676.31
2023-03-16T11:47:47.046Z,99672.75
2023-03-16T11:50:28.448Z,99660.72
2023-03-16T11:53:13.876Z,99664.19
2023-03-16T11:56:11.690Z,99666.88
2023-03-16T11:59:06.791Z,99669.50
2023-03-16T12:02:10.900Z,99660.34
2023-03-16T12:05:09.829Z,99661.22
2023-03-16T12:08:13.402Z,99662.88
2023-03-16T12:10:58.633Z,99656.91
2023-03-16T12:14:12.879Z,99648.41
2023-03-16T12:17:03.371Z,99643.19
2023-03-16T12:19:56.404Z,99645.81
2023-03-16T12:22:42.130Z,99642.47
2023-03-16T12:25:22.189Z,99650.22
2023-03-16T12:27:53.896Z,99658.75
2023-03-16T12:30:55.132Z,99645.16
2023-03-16T12:33:34.339Z,99632.31
2023-03-16T12:36:19.303Z,99632.31
2023-03-16T12:39:05.565Z,99614.31
2023-03-16T12:41:41.608Z,99604.84
2023-03-16T12:44:24.792Z,99620.31
2023-03-16T12:47:24.130Z,99614.31
2023-03-16T12:49:52.072Z,99603.16
2023-03-16T12:52:18.992Z,99604.84
2023-03-16T12:55:05.453Z,99590.25
2023-03-16T12:57:33.020Z,99595.38
2023-03-16T13:00:01.626Z,99591.91
2023-03-16T13:02:34.747Z,99587.59
2023-03-16T13:05:08.068Z,99604.84
2023-03-16T13:07:35.866Z,99585.09
2023-03-16T13:10:10.051Z,99573.09
2023-03-16T13:12:41.663Z,99567.06
2023-03-16T13:15:17.940Z,99566.22
2023-03-16T13:17:47.492Z,99556.72
2023-03-16T13:20:29.295Z,99550.66
2023-03-16T13:23:18.705Z,99549.78
2023-03-16T13:26:16.781Z,99547.28
2023-03-16T13:28:52.840Z,99544.78
2023-03-16T13:31:36.021Z,99544.78
2023-03-16T13:34:07.585Z,99541.31
2023-03-16T13:36:35.654Z,99548.16
2023-03-16T13:39:15.119Z,99552.47
2023-03-16T13:41:43.511Z,99551.53
2023-03-16T13:44:19.034Z,99543.00
2023-03-16T13:46:49.686Z,99540.41
2023-03-16T13:49:18.721Z,99539.53
2023-03-16T13:51:47.292Z,99520.59
2023-03-16T13:54:32.333Z,99511.09
2023-03-16T13:57:04.244Z,99494.81
2023-03-16T13:59:31.627Z,99491.19
2023-03-16T14:02:01.942Z,99504.22
2023-03-16T14:04:33.125Z,99501.63
2023-03-16T14:07:03.803Z,99487.16
2023-03-16T14:09:35.820Z,99495.84
2023-03-16T14:12:03.732Z,99495.00
2023-03-16T14:14:39.358Z,99488.16
2023-03-16T14:17:16.957Z,99482.09
2023-03-16T14:19:47.259Z,99481.22
2023-03-16T14:22:23.875Z,99489.81
2023-03-16T14:25:00.722Z,99496.72
2023-03-16T14:27:40.585Z,99486.41
2023-03-16T14:30:30.392Z,99478.66
2023-03-16T14:33:41.991Z,99456.31
2023-03-16T14:36:18.809Z,99453.78
2023-03-16T14:38:54.437Z,99440.94
2023-03-16T14:41:31.017Z,99451.22
2023-03-16T14:44:00.543Z,99440.13
2023-03-16T14:46:34.500Z,99446.13
2023-03-16T14:49:26.192Z,99429.81
2023-03-16T14:51:57.652Z,99437.50
2023-03-16T14:54:29.557Z,99428.13
2023-03-16T14:57:05.757Z,99422.09
2023-03-16T14:59:33.722Z,99421.28
2023-03-16T15:02:03.364Z,99417.88
2023-03-16T15:04:34.632Z,99422.19
2023-03-16T15:07:06.993Z,99416.16
2023-03-16T15:09:43.355Z,99414.44
2023-03-16T15:12:19.687Z,99414.47
2023-03-16T15:15:06.500Z,99414.47
2023-03-16T15:17:33.761Z,99404.19
2023-03-16T15:20:01.197Z,99405.03
2023-03-16T15:22:35.665Z,99393.91
2023-03-16T15:25:20.473Z,99387.88
2023-03-16T15:27:48.277Z,99375.03
2023-03-16T15:30:25.016Z,99366.47
2023-03-16T15:32:52.862Z,99372.47
2023-03-16T15:35:21.290Z,99360.47
2023-03-16T15:37:48.812Z,99364.69
2023-03-16T15:40:26.972Z,99370.72
2023-03-16T15:42:54.651Z,99363.88
2023-03-16T15:45:23.449Z,99358.72
2023-03-16T15:47:53.826Z,99356.16
2023-03-16T15:50:24.765Z,99353.56
2023-03-16T15:53:07.152Z,99350.13
2023-03-16T15:55:45.469Z,99351.00
2023-03-16T15:58:21.447Z,99346.72
2023-03-16T16:00:49.480Z,99349.28
2023-03-16T16:03:16.427Z,99344.97
2023-03-16T16:05:43.530Z,99330.44
2023-03-16T16:08:10.933Z,99321.88
2023-03-16T16:10:39.722Z,99333.88
2023-03-16T16:13:11.752Z,99321.00
2023-03-16T16:15:39.672Z,99317.59
2023-03-16T16:18:30.408Z,99309.03
2023-03-16T16:21:00.082Z,99292.72
2023-03-16T16:23:27.425Z,99290.97
2023-03-16T16:25:58.589Z,99296.97
2023-03-16T16:28:30.808Z,99274.72
2023-03-16T16:31:00.822Z,99287.53
2023-03-16T16:33:35.862Z,99278.09
2023-03-16T16:36:14.076Z,99286.69
2023-03-16T16:38:41.184Z,99287.47
2023-03-16T16:41:09.362Z,99284.03
2023-03-16T16:43:42.804Z,99280.59
2023-03-16T16:46:20.094Z,99275.44
2023-03-16T16:49:00.310Z,99275.41
2023-03-16T16:51:29.734Z,99284.84
2023-03-16T16:54:00.092Z,99283.91
2023-03-16T16:56:33.656Z,99283.91
2023-03-16T16:59:28.930Z,99271.03
2023-03-16T17:01:56.659Z,99268.41
2023-03-16T17:04:27.090Z,99268.38
2023-03-16T17:06:58.933Z,99263.19
2023-03-16T17:09:28.077Z,99260.59
2023-03-16T17:11:58.711Z,99244.34
2023-03-16T17:14:28.224Z,99249.41
2023-03-16T17:16:55.783Z,99251.91
2023-03-16T17:19:27.187Z,99243.31
2023-03-16T17:21:57.445Z,99240.75
2023-03-16T17:24:25.287Z,99244.09
2023-03-16T17:26:59.860Z,99240.69
2023-03-16T17:29:33.289Z,99246.63
2023-03-16T17:32:02.850Z,99242.31
2023-03-16T17:34:33.017Z,99242.28
2023-03-16T17:37:01.727Z,99244.78
2023-03-16T17:39:32.040Z,99249.00
2023-03-16T17:42:12.047Z,99259.25
2023-03-16T17:44:48.652Z,99255.75
2023-03-16T17:47:23.591Z,99251.50
2023-03-16T17:49:51.857Z,99256.63
2023-03-16T17:52:25.377Z,99254.84
2023-03-16T17:54:54.411Z,99245.41
2023-03-16T17:57:32.074Z,99246.25
2023-03-16T18:00:01.705Z,99241.13
2023-03-16T18:02:56.136Z,99246.19
2023-03-16T18:05:32.749Z,99241.84
2023-03-16T18:08:12.833Z,99229.91
2023-03-16T18:10:39.956Z,99236.69
2023-03-16T18:13:18.825Z,99246.00
2023-03-16T18:15:47.207Z,99231.47
2023-03-16T18:18:21.713Z,99229.69
2023-03-16T18:20:50.979Z,99234.78
2023-03-16T18:23:30.797Z,99231.41
2023-03-16T18:26:03.794Z,99226.28
2023-03-16T18:28:32.056Z,99230.47
2023-03-16T18:31:00.213Z,99229.66
2023-03-16T18:33:34.443Z,99234.72
2023-03-16T18:36:13.437Z,99232.97
2023-03-16T18:38:43.626Z,99233.81
2023-03-16T18:43:36.058Z,99224.34
2023-03-16T18:46:03.599Z,99232.03
2023-03-16T18:48:34.790Z,99231.16
2023-03-16T18:51:02.150Z,99234.50
2023-03-16T18:53:29.619Z,99222.53
2023-03-16T18:55:57.647Z,99227.69
2023-03-16T18:58:25.319Z,99236.19
2023-03-16T19:00:58.484Z,99224.28
2023-03-16T19:03:29.389Z,99237.94
2023-03-16T19:05:59.227Z,99246.44
2023-03-16T19:08:28.788Z,99236.13
2023-03-16T19:11:00.662Z,99240.34
2023-03-16T19:13:28.422Z,99244.56
2023-03-16T19:15:57.745Z,99242.91
2023-03-16T19:18:26.207Z,99244.56
2023-03-16T19:20:54.662Z,99242.91
2023-03-16T19:23:30.798Z,99246.31
2023-03-16T19:25:58.468Z,99244.69
2023-03-16T19:28:33.658Z,99244.69
2023-03-16T19:31:03.292Z,99236.19
2023-03-16T19:33:30.727Z,99241.34
2023-03-16T19:35:58.210Z,99240.47
2023-03-16T19:38:26.329Z,99244.69
2023-03-16T19:40:57.825Z,99244.75
2023-03-16T19:43:26.737Z,99239.59
2023-03-16T19:45:56.213Z,99231.94
2023-03-16T19:48:33.351Z,99225.13
2023-03-16T19:51:00.408Z,99208.91
2023-03-16T19:53:27.641Z,99212.28
2023-03-16T19:55:54.848Z,99205.44
2023-03-16T19:58:33.268Z,99208.72
2023-03-16T20:01:01.193Z,99210.44
2023-03-16T20:03:31.812Z,99204.47
2023-03-16T20:05:58.678Z,99206.22
2023-03-16T20:08:28.768Z,99197.59
2023-03-16T20:11:10.380Z,99201.84
2023-03-16T20:13:37.477Z,99200.13
2023-03-16T20:16:04.964Z,99195.84
2023-03-16T20:18:32.034Z,99193.28
2023-03-16T20:20:58.973Z,99193.28
2023-03-16T20:23:29.311Z,99197.47
2023-03-16T20:26:02.003Z,99199.09
2023-03-16T20:28:38.077Z,99188.91
2023-03-16T20:31:09.174Z,99183.81
2023-03-16T20:33:36.378Z,99189.75
2023-03-16T20:36:03.802Z,99185.47
2023-03-16T20:38:30.993Z,99188.94
2023-03-16T20:40:58.067Z,99189.72
2023-03-16T20:43:32.750Z,99193.97
2023-03-16T20:46:03.735Z,99185.44
2023-03-16T20:48:32.106Z,99194.84
2023-03-16T20:51:00.567Z,99192.25
2023-03-16T20:53:27.709Z,99190.56
2023-03-16T20:55:56.569Z,99187.97
2023-03-16T20:58:27.900Z,99180.31
2023-03-16T21:00:57.709Z,99183.72
2023-03-16T21:03:29.353Z,99169.22
2023-03-16T21:05:59.822Z,99172.66
2023-03-16T21:08:27.579Z,99175.16
2023-03-16T21:10:56.837Z,99175.16
2023-03-16T21:13:32.954Z,99177.66
2023-03-16T21:16:03.251Z,99171.59
2023-03-16T21:18:30.821Z,99160.59
2023-03-16T21:20:58.836Z,99155.53
2023-03-16T21:23:26.158Z,99152.97
2023-03-16T21:26:03.659Z,99153.84
2023-03-16T21:28:33.891Z,99146.97
2023-03-16T21:31:02.726Z,99146.09
2023-03-16T21:33:37.490Z,99140.19
2023-03-16T21:36:31.779Z,99143.63
2023-03-16T21:38:58.691Z,99130.88
2023-03-16T21:41:25.736Z,99140.28
2023-03-16T21:43:54.456Z,99135.94
2023-03-16T21:46:25.530Z,99129.16
2023-03-16T21:48:55.640Z,99130.00
2023-03-16T21:51:28.934Z,99130.88
2023-03-16T21:53:56.070Z,99121.44
2023-03-16T21:56:25.966Z,99121.44
2023-03-16T21:58:54.373Z,99105.31
2023-03-16T22:01:31.464Z,99112.94
2023-03-16T22:04:09.001Z,99111.31
2023-03-16T22:06:36.594Z,99110.38
2023-03-16T22:09:04.224Z,99109.47
2023-03-16T22:11:32.081Z,99082.22
2023-03-16T22:13:59.696Z,99095.81
2023-03-16T22:16:30.068Z,99096.66
2023-03-16T22:18:58.069Z,99088.97
2023-03-16T22:21:38.479Z,99099.19
2023-03-16T22:24:13.931Z,99084.72
2023-03-16T22:26:41.399Z,99085.63
2023-03-16T22:29:30.215Z,99084.69
2023-03-16T22:32:20.252Z,99077.03
2023-03-16T22:34:57.162Z,99083.84
2023-03-16T22:37:28.995Z,99070.25
2023-03-16T22:39:58.414Z,99066.81
2023-03-16T22:42:33.312Z,99059.13
2023-03-16T22:45:01.004Z,99065.97
2023-03-16T22:47:33.834Z,99058.31
2023-03-16T22:50:01.243Z,99057.47
2023-03-16T22:52:35.318Z,99063.38
2023-03-16T22:55:05.732Z,99063.41
2023-03-16T22:57:33.003Z,99059.94
2023-03-16T23:00:06.988Z,99058.25
2023-03-16T23:02:33.974Z,99063.38
2023-03-16T23:05:01.151Z,99054.84
2023-03-16T23:07:29.823Z,99062.47
2023-03-16T23:09:56.759Z,99054.81
2023-03-16T23:12:23.683Z,99053.06
2023-03-16T23:14:50.694Z,99053.09
2023-03-16T23:17:22.111Z,99048.84
2023-03-16T23:19:49.465Z,99051.41
2023-03-16T23:22:16.979Z,99047.13
2023-03-16T23:24:44.034Z,99037.00
2023-03-16T23:27:21.396Z,99035.25
2023-03-16T23:29:48.702Z,99047.97
2023-03-16T23:32:17.128Z,99030.97
2023-03-16T23:34:44.660Z,99041.16
2023-03-16T23:37:11.954Z,99037.72
2023-03-16T23:39:39.753Z,99035.91
2023-03-16T23:42:07.491Z,99034.28
2023-03-16T23:44:34.923Z,99047.94
2023-03-16T23:47:02.311Z,99028.34
2023-03-16T23:49:32.910Z,99025.81
2023-03-16T23:52:01.807Z,99035.22
2023-03-16T23:54:31.757Z,99038.59
2023-03-16T23:56:58.962Z,99027.50
2023-03-16T23:59:27.384Z,99025.84
